sensor_id;sensor_type;location;lat;lon;timestamp;P1;durP1;ratioP1;P2;durP2;ratioP2
57047;SDS011;42934;54.294;18.598;2023-08-31T00:00:41;0.93;;;0.80;;
57047;SDS011;42934;54.294;18.598;2023-08-31T00:03:27;3.20;;;0.80;;
57047;SDS011;42934;54.294;18.598;2023-08-31T00:05:57;2.35;;;0.80;;
57047;SDS011;42934;54.294;18.598;2023-08-31T00:08:29;0.65;;;0.65;;
57047;SDS011;42934;54.294;18.598;2023-08-31T00:11:00;1.15;;;0.60;;
57047;SDS011;42934;54.294;18.598;2023-08-31T00:13:29;0.73;;;0.73;;
57047;SDS011;42934;54.294;18.598;2023-08-31T00:15:59;0.70;;;0.70;;
57047;SDS011;42934;54.294;18.598;2023-08-31T00:18:29;3.65;;;0.70;;
57047;SDS011;42934;54.294;18.598;2023-08-31T00:20:58;0.95;;;0.50;;
57047;SDS011;42934;54.294;18.598;2023-08-31T00:23:28;1.17;;;0.70;;
57047;SDS011;42934;54.294;18.598;2023-08-31T00:25:57;3.63;;;0.80;;
57047;SDS011;42934;54.294;18.598;2023-08-31T00:28:26;1.60;;;0.60;;
57047;SDS011;42934;54.294;18.598;2023-08-31T00:30:55;0.73;;;0.68;;
57047;SDS011;42934;54.294;18.598;2023-08-31T00:33:26;0.80;;;0.73;;
57047;SDS011;42934;54.294;18.598;2023-08-31T00:35:58;0.60;;;0.60;;
57047;SDS011;42934;54.294;18.598;2023-08-31T00:38:30;0.85;;;0.70;;
57047;SDS011;42934;54.294;18.598;2023-08-31T00:41:00;0.73;;;0.60;;
57047;SDS011;42934;54.294;18.598;2023-08-31T00:43:29;0.93;;;0.70;;
57047;SDS011;42934;54.294;18.598;2023-08-31T00:45:59;0.77;;;0.60;;
57047;SDS011;42934;54.294;18.598;2023-08-31T00:48:29;1.07;;;0.80;;
57047;SDS011;42934;54.294;18.598;2023-08-31T00:50:59;1.20;;;0.80;;
57047;SDS011;42934;54.294;18.598;2023-08-31T00:53:29;2.15;;;0.70;;
57047;SDS011;42934;54.294;18.598;2023-08-31T00:55:59;1.65;;;0.80;;
57047;SDS011;42934;54.294;18.598;2023-08-31T00:58:30;0.73;;;0.73;;
57047;SDS011;42934;54.294;18.598;2023-08-31T01:01:01;2.40;;;0.68;;
57047;SDS011;42934;54.294;18.598;2023-08-31T01:03:39;0.73;;;0.70;;
57047;SDS011;42934;54.294;18.598;2023-08-31T01:06:13;1.13;;;0.77;;
57047;SDS011;42934;54.294;18.598;2023-08-31T01:08:50;1.73;;;0.75;;
57047;SDS011;42934;54.294;18.598;2023-08-31T01:11:29;1.02;;;0.60;;
57047;SDS011;42934;54.294;18.598;2023-08-31T01:14:02;0.65;;;0.60;;
57047;SDS011;42934;54.294;18.598;2023-08-31T01:16:41;0.70;;;0.70;;
57047;SDS011;42934;54.294;18.598;2023-08-31T01:19:16;0.60;;;0.60;;
57047;SDS011;42934;54.294;18.598;2023-08-31T01:21:59;0.70;;;0.60;;
57047;SDS011;42934;54.294;18.598;2023-08-31T01:24:34;1.38;;;0.70;;
57047;SDS011;42934;54.294;18.598;2023-08-31T01:27:05;0.98;;;0.70;;
57047;SDS011;42934;54.294;18.598;2023-08-31T01:29:34;1.33;;;0.80;;
57047;SDS011;42934;54.294;18.598;2023-08-31T01:32:05;0.80;;;0.80;;
57047;SDS011;42934;54.294;18.598;2023-08-31T01:34:36;0.65;;;0.65;;
57047;SDS011;42934;54.294;18.598;2023-08-31T01:37:08;1.40;;;0.80;;
57047;SDS011;42934;54.294;18.598;2023-08-31T01:39:45;0.88;;;0.88;;
57047;SDS011;42934;54.294;18.598;2023-08-31T01:42:20;0.90;;;0.70;;
57047;SDS011;42934;54.294;18.598;2023-08-31T01:44:52;0.70;;;0.70;;
57047;SDS011;42934;54.294;18.598;2023-08-31T01:47:24;0.85;;;0.80;;
57047;SDS011;42934;54.294;18.598;2023-08-31T01:49:54;1.73;;;0.80;;
57047;SDS011;42934;54.294;18.598;2023-08-31T01:52:23;1.05;;;0.95;;
57047;SDS011;42934;54.294;18.598;2023-08-31T01:54:54;1.02;;;0.93;;
57047;SDS011;42934;54.294;18.598;2023-08-31T01:57:23;1.00;;;0.90;;
57047;SDS011;42934;54.294;18.598;2023-08-31T02:00:03;1.30;;;1.20;;
57047;SDS011;42934;54.294;18.598;2023-08-31T02:02:42;1.50;;;1.10;;
57047;SDS011;42934;54.294;18.598;2023-08-31T02:05:13;1.58;;;1.30;;
57047;SDS011;42934;54.294;18.598;2023-08-31T02:07:42;6.25;;;1.23;;
57047;SDS011;42934;54.294;18.598;2023-08-31T02:10:13;3.17;;;1.33;;
57047;SDS011;42934;54.294;18.598;2023-08-31T02:12:43;1.42;;;1.00;;
57047;SDS011;42934;54.294;18.598;2023-08-31T02:15:12;2.30;;;1.30;;
57047;SDS011;42934;54.294;18.598;2023-08-31T02:17:41;1.73;;;1.38;;
57047;SDS011;42934;54.294;18.598;2023-08-31T02:20:14;1.60;;;1.50;;
57047;SDS011;42934;54.294;18.598;2023-08-31T02:22:43;1.42;;;1.33;;
57047;SDS011;42934;54.294;18.598;2023-08-31T02:25:13;2.58;;;1.50;;
57047;SDS011;42934;54.294;18.598;2023-08-31T02:27:45;2.15;;;1.30;;
57047;SDS011;42934;54.294;18.598;2023-08-31T02:30:15;2.40;;;1.45;;
57047;SDS011;42934;54.294;18.598;2023-08-31T02:32:44;2.40;;;1.50;;
57047;SDS011;42934;54.294;18.598;2023-08-31T02:35:14;1.55;;;1.40;;
57047;SDS011;42934;54.294;18.598;2023-08-31T02:37:43;2.70;;;1.50;;
57047;SDS011;42934;54.294;18.598;2023-08-31T02:40:14;2.05;;;1.50;;
57047;SDS011;42934;54.294;18.598;2023-08-31T02:42:42;2.22;;;1.55;;
57047;SDS011;42934;54.294;18.598;2023-08-31T02:45:13;2.63;;;1.60;;
57047;SDS011;42934;54.294;18.598;2023-08-31T02:50:13;1.70;;;1.60;;
57047;SDS011;42934;54.294;18.598;2023-08-31T02:52:42;1.40;;;1.30;;
57047;SDS011;42934;54.294;18.598;2023-08-31T02:55:11;3.15;;;1.63;;
57047;SDS011;42934;54.294;18.598;2023-08-31T02:57:42;2.38;;;1.63;;
57047;SDS011;42934;54.294;18.598;2023-08-31T03:00:12;1.48;;;1.30;;
57047;SDS011;42934;54.294;18.598;2023-08-31T03:02:42;2.53;;;1.20;;
57047;SDS011;42934;54.294;18.598;2023-08-31T03:05:11;4.35;;;1.50;;
57047;SDS011;42934;54.294;18.598;2023-08-31T03:07:42;1.63;;;1.10;;
57047;SDS011;42934;54.294;18.598;2023-08-31T03:10:11;2.17;;;1.03;;
57047;SDS011;42934;54.294;18.598;2023-08-31T03:12:42;1.40;;;1.20;;
57047;SDS011;42934;54.294;18.598;2023-08-31T03:15:11;1.42;;;1.05;;
57047;SDS011;42934;54.294;18.598;2023-08-31T03:17:40;2.38;;;1.10;;
57047;SDS011;42934;54.294;18.598;2023-08-31T03:20:10;1.20;;;1.10;;
57047;SDS011;42934;54.294;18.598;2023-08-31T03:22:39;1.58;;;0.77;;
57047;SDS011;42934;54.294;18.598;2023-08-31T03:25:08;0.97;;;0.97;;
57047;SDS011;42934;54.294;18.598;2023-08-31T03:27:39;2.10;;;1.00;;
57047;SDS011;42934;54.294;18.598;2023-08-31T03:30:09;1.00;;;0.90;;
57047;SDS011;42934;54.294;18.598;2023-08-31T03:32:39;2.22;;;0.80;;
57047;SDS011;42934;54.294;18.598;2023-08-31T03:35:09;1.38;;;0.90;;
57047;SDS011;42934;54.294;18.598;2023-08-31T03:37:38;3.97;;;1.58;;
57047;SDS011;42934;54.294;18.598;2023-08-31T03:40:08;1.63;;;0.95;;
57047;SDS011;42934;54.294;18.598;2023-08-31T03:42:37;1.55;;;0.98;;
57047;SDS011;42934;54.294;18.598;2023-08-31T03:45:08;2.40;;;1.00;;
57047;SDS011;42934;54.294;18.598;2023-08-31T03:47:38;2.53;;;1.00;;
57047;SDS011;42934;54.294;18.598;2023-08-31T03:50:06;1.48;;;0.90;;
57047;SDS011;42934;54.294;18.598;2023-08-31T03:55:05;1.33;;;1.20;;
57047;SDS011;42934;54.294;18.598;2023-08-31T03:57:35;1.00;;;0.90;;
57047;SDS011;42934;54.294;18.598;2023-08-31T04:00:14;1.60;;;1.00;;
57047;SDS011;42934;54.294;18.598;2023-08-31T04:02:44;1.60;;;1.00;;
57047;SDS011;42934;54.294;18.598;2023-08-31T04:05:18;2.70;;;1.20;;
57047;SDS011;42934;54.294;18.598;2023-08-31T04:07:47;1.92;;;0.90;;
57047;SDS011;42934;54.294;18.598;2023-08-31T04:10:16;2.15;;;1.20;;
57047;SDS011;42934;54.294;18.598;2023-08-31T04:12:46;2.42;;;1.25;;
57047;SDS011;42934;54.294;18.598;2023-08-31T04:15:17;1.23;;;1.13;;
57047;SDS011;42934;54.294;18.598;2023-08-31T04:17:46;4.20;;;1.67;;
57047;SDS011;42934;54.294;18.598;2023-08-31T04:20:17;3.90;;;1.67;;
57047;SDS011;42934;54.294;18.598;2023-08-31T04:22:46;2.15;;;1.80;;
57047;SDS011;42934;54.294;18.598;2023-08-31T04:25:15;1.85;;;1.65;;
57047;SDS011;42934;54.294;18.598;2023-08-31T04:27:45;1.60;;;1.50;;
57047;SDS011;42934;54.294;18.598;2023-08-31T04:30:14;2.92;;;1.83;;
57047;SDS011;42934;54.294;18.598;2023-08-31T04:32:45;3.05;;;2.08;;
57047;SDS011;42934;54.294;18.598;2023-08-31T04:35:15;2.17;;;1.95;;
57047;SDS011;42934;54.294;18.598;2023-08-31T04:37:44;2.60;;;2.40;;
57047;SDS011;42934;54.294;18.598;2023-08-31T04:40:13;3.75;;;2.13;;
57047;SDS011;42934;54.294;18.598;2023-08-31T04:42:43;4.40;;;2.30;;
57047;SDS011;42934;54.294;18.598;2023-08-31T04:45:12;2.92;;;2.45;;
57047;SDS011;42934;54.294;18.598;2023-08-31T04:50:13;3.53;;;2.35;;
57047;SDS011;42934;54.294;18.598;2023-08-31T04:52:43;4.88;;;2.25;;
57047;SDS011;42934;54.294;18.598;2023-08-31T04:55:12;4.90;;;2.20;;
57047;SDS011;42934;54.294;18.598;2023-08-31T04:57:42;3.97;;;2.35;;
57047;SDS011;42934;54.294;18.598;2023-08-31T05:00:11;3.38;;;2.25;;
57047;SDS011;42934;54.294;18.598;2023-08-31T05:02:41;2.88;;;2.10;;
57047;SDS011;42934;54.294;18.598;2023-08-31T05:05:12;3.20;;;2.63;;
57047;SDS011;42934;54.294;18.598;2023-08-31T05:07:42;4.30;;;2.03;;
57047;SDS011;42934;54.294;18.598;2023-08-31T05:10:11;3.50;;;2.30;;
57047;SDS011;42934;54.294;18.598;2023-08-31T05:12:40;3.85;;;2.30;;
57047;SDS011;42934;54.294;18.598;2023-08-31T05:15:09;3.47;;;2.40;;
57047;SDS011;42934;54.294;18.598;2023-08-31T05:17:39;6.60;;;2.70;;
57047;SDS011;42934;54.294;18.598;2023-08-31T05:20:08;3.83;;;2.47;;
57047;SDS011;42934;54.294;18.598;2023-08-31T05:27:37;3.95;;;2.38;;
57047;SDS011;42934;54.294;18.598;2023-08-31T05:30:07;4.35;;;2.30;;
57047;SDS011;42934;54.294;18.598;2023-08-31T05:32:36;4.95;;;2.35;;
57047;SDS011;42934;54.294;18.598;2023-08-31T05:35:06;3.72;;;2.50;;
57047;SDS011;42934;54.294;18.598;2023-08-31T05:37:36;4.22;;;2.42;;
57047;SDS011;42934;54.294;18.598;2023-08-31T05:40:07;4.30;;;2.58;;
57047;SDS011;42934;54.294;18.598;2023-08-31T05:42:38;4.53;;;2.35;;
57047;SDS011;42934;54.294;18.598;2023-08-31T05:45:07;4.90;;;2.67;;
57047;SDS011;42934;54.294;18.598;2023-08-31T05:50:06;2.80;;;2.20;;
57047;SDS011;42934;54.294;18.598;2023-08-31T05:52:36;3.08;;;2.35;;
57047;SDS011;42934;54.294;18.598;2023-08-31T05:55:09;4.13;;;2.22;;
57047;SDS011;42934;54.294;18.598;2023-08-31T05:57:38;4.03;;;2.00;;
57047;SDS011;42934;54.294;18.598;2023-08-31T06:00:08;3.45;;;2.17;;
57047;SDS011;42934;54.294;18.598;2023-08-31T06:02:38;3.13;;;2.38;;
57047;SDS011;42934;54.294;18.598;2023-08-31T06:05:08;2.90;;;2.27;;
57047;SDS011;42934;54.294;18.598;2023-08-31T06:07:39;4.03;;;2.28;;
57047;SDS011;42934;54.294;18.598;2023-08-31T06:10:09;2.75;;;2.30;;
57047;SDS011;42934;54.294;18.598;2023-08-31T06:12:40;3.05;;;2.20;;
57047;SDS011;42934;54.294;18.598;2023-08-31T06:15:09;4.68;;;2.17;;
57047;SDS011;42934;54.294;18.598;2023-08-31T06:17:39;3.65;;;2.13;;
57047;SDS011;42934;54.294;18.598;2023-08-31T06:20:08;6.65;;;2.42;;
57047;SDS011;42934;54.294;18.598;2023-08-31T06:22:39;4.20;;;2.05;;
57047;SDS011;42934;54.294;18.598;2023-08-31T06:25:09;5.90;;;2.28;;
57047;SDS011;42934;54.294;18.598;2023-08-31T06:27:42;5.13;;;1.80;;
57047;SDS011;42934;54.294;18.598;2023-08-31T06:30:11;4.63;;;2.10;;
57047;SDS011;42934;54.294;18.598;2023-08-31T06:32:43;5.03;;;1.88;;
57047;SDS011;42934;54.294;18.598;2023-08-31T06:37:45;4.90;;;2.30;;
57047;SDS011;42934;54.294;18.598;2023-08-31T06:40:15;2.60;;;1.90;;
57047;SDS011;42934;54.294;18.598;2023-08-31T06:42:45;4.10;;;2.03;;
57047;SDS011;42934;54.294;18.598;2023-08-31T06:45:14;6.28;;;2.20;;
57047;SDS011;42934;54.294;18.598;2023-08-31T06:47:43;3.40;;;2.15;;
57047;SDS011;42934;54.294;18.598;2023-08-31T06:50:13;3.40;;;2.33;;
57047;SDS011;42934;54.294;18.598;2023-08-31T06:52:43;4.88;;;2.15;;
57047;SDS011;42934;54.294;18.598;2023-08-31T06:55:13;5.38;;;2.22;;
57047;SDS011;42934;54.294;18.598;2023-08-31T06:57:44;2.65;;;2.20;;
57047;SDS011;42934;54.294;18.598;2023-08-31T07:00:13;5.18;;;2.60;;
57047;SDS011;42934;54.294;18.598;2023-08-31T07:05:12;6.50;;;2.20;;
57047;SDS011;42934;54.294;18.598;2023-08-31T07:07:42;2.92;;;1.88;;
57047;SDS011;42934;54.294;18.598;2023-08-31T07:10:11;4.93;;;1.98;;
57047;SDS011;42934;54.294;18.598;2023-08-31T07:12:43;3.95;;;2.42;;
57047;SDS011;42934;54.294;18.598;2023-08-31T07:15:12;5.88;;;2.20;;
57047;SDS011;42934;54.294;18.598;2023-08-31T07:17:41;3.35;;;2.03;;
57047;SDS011;42934;54.294;18.598;2023-08-31T07:20:11;2.97;;;2.10;;
57047;SDS011;42934;54.294;18.598;2023-08-31T07:22:40;2.03;;;1.85;;
57047;SDS011;42934;54.294;18.598;2023-08-31T07:25:09;4.45;;;2.00;;
57047;SDS011;42934;54.294;18.598;2023-08-31T07:27:39;3.30;;;2.10;;
57047;SDS011;42934;54.294;18.598;2023-08-31T07:30:09;4.50;;;2.00;;
57047;SDS011;42934;54.294;18.598;2023-08-31T07:32:39;5.30;;;2.10;;
57047;SDS011;42934;54.294;18.598;2023-08-31T07:35:08;4.60;;;1.97;;
57047;SDS011;42934;54.294;18.598;2023-08-31T07:37:38;3.50;;;1.88;;
57047;SDS011;42934;54.294;18.598;2023-08-31T07:42:37;5.22;;;1.92;;
57047;SDS011;42934;54.294;18.598;2023-08-31T07:45:07;3.65;;;1.80;;
57047;SDS011;42934;54.294;18.598;2023-08-31T07:47:38;6.35;;;2.10;;
57047;SDS011;42934;54.294;18.598;2023-08-31T07:50:08;5.07;;;2.20;;
57047;SDS011;42934;54.294;18.598;2023-08-31T07:52:39;5.32;;;2.28;;
57047;SDS011;42934;54.294;18.598;2023-08-31T07:55:08;3.88;;;2.20;;
57047;SDS011;42934;54.294;18.598;2023-08-31T07:57:38;3.63;;;1.92;;
57047;SDS011;42934;54.294;18.598;2023-08-31T08:00:10;3.35;;;1.67;;
57047;SDS011;42934;54.294;18.598;2023-08-31T08:02:41;5.03;;;1.92;;
57047;SDS011;42934;54.294;18.598;2023-08-31T08:05:11;3.50;;;1.90;;
57047;SDS011;42934;54.294;18.598;2023-08-31T08:07:41;5.22;;;1.95;;
57047;SDS011;42934;54.294;18.598;2023-08-31T08:10:10;4.65;;;1.80;;
57047;SDS011;42934;54.294;18.598;2023-08-31T08:12:42;2.95;;;1.70;;
57047;SDS011;42934;54.294;18.598;2023-08-31T08:15:13;3.67;;;1.50;;
57047;SDS011;42934;54.294;18.598;2023-08-31T08:17:43;2.10;;;1.42;;
57047;SDS011;42934;54.294;18.598;2023-08-31T08:20:12;2.28;;;1.60;;
57047;SDS011;42934;54.294;18.598;2023-08-31T08:22:41;4.05;;;1.60;;
57047;SDS011;42934;54.294;18.598;2023-08-31T08:25:11;3.78;;;1.60;;
57047;SDS011;42934;54.294;18.598;2023-08-31T08:27:41;2.45;;;1.55;;
57047;SDS011;42934;54.294;18.598;2023-08-31T08:30:10;2.95;;;1.58;;
57047;SDS011;42934;54.294;18.598;2023-08-31T08:32:41;2.30;;;1.40;;
57047;SDS011;42934;54.294;18.598;2023-08-31T08:35:10;2.80;;;1.50;;
57047;SDS011;42934;54.294;18.598;2023-08-31T08:37:39;3.55;;;1.52;;
57047;SDS011;42934;54.294;18.598;2023-08-31T08:40:09;5.88;;;1.38;;
57047;SDS011;42934;54.294;18.598;2023-08-31T08:42:40;2.72;;;1.50;;
57047;SDS011;42934;54.294;18.598;2023-08-31T08:45:11;1.55;;;1.20;;
57047;SDS011;42934;54.294;18.598;2023-08-31T08:47:45;2.90;;;1.58;;
57047;SDS011;42934;54.294;18.598;2023-08-31T08:50:17;4.20;;;1.30;;
57047;SDS011;42934;54.294;18.598;2023-08-31T08:52:48;2.83;;;1.50;;
57047;SDS011;42934;54.294;18.598;2023-08-31T08:55:18;3.75;;;1.77;;
57047;SDS011;42934;54.294;18.598;2023-08-31T08:57:50;5.10;;;1.40;;
57047;SDS011;42934;54.294;18.598;2023-08-31T09:00:19;1.50;;;1.40;;
57047;SDS011;42934;54.294;18.598;2023-08-31T09:02:50;2.20;;;1.42;;
57047;SDS011;42934;54.294;18.598;2023-08-31T09:05:20;6.30;;;1.70;;
57047;SDS011;42934;54.294;18.598;2023-08-31T09:08:02;1.92;;;1.50;;
57047;SDS011;42934;54.294;18.598;2023-08-31T09:10:36;2.15;;;1.38;;
57047;SDS011;42934;54.294;18.598;2023-08-31T09:13:07;2.95;;;1.50;;
57047;SDS011;42934;54.294;18.598;2023-08-31T09:15:38;3.20;;;1.50;;
57047;SDS011;42934;54.294;18.598;2023-08-31T09:18:17;1.88;;;1.40;;
57047;SDS011;42934;54.294;18.598;2023-08-31T09:20:52;2.95;;;1.58;;
57047;SDS011;42934;54.294;18.598;2023-08-31T09:23:23;10.68;;;2.08;;
57047;SDS011;42934;54.294;18.598;2023-08-31T09:25:53;7.10;;;1.30;;
57047;SDS011;42934;54.294;18.598;2023-08-31T09:28:25;20.00;;;2.35;;
57047;SDS011;42934;54.294;18.598;2023-08-31T09:31:03;5.72;;;1.88;;
57047;SDS011;42934;54.294;18.598;2023-08-31T09:33:36;3.05;;;1.65;;
57047;SDS011;42934;54.294;18.598;2023-08-31T09:36:08;3.67;;;1.27;;
57047;SDS011;42934;54.294;18.598;2023-08-31T09:38:41;2.97;;;1.30;;
57047;SDS011;42934;54.294;18.598;2023-08-31T09:41:11;3.03;;;1.42;;
57047;SDS011;42934;54.294;18.598;2023-08-31T09:43:42;3.15;;;1.60;;
57047;SDS011;42934;54.294;18.598;2023-08-31T09:46:11;2.83;;;1.40;;
57047;SDS011;42934;54.294;18.598;2023-08-31T09:51:11;16.52;;;2.20;;
57047;SDS011;42934;54.294;18.598;2023-08-31T09:53:45;4.05;;;1.48;;
57047;SDS011;42934;54.294;18.598;2023-08-31T09:56:20;5.40;;;1.50;;
57047;SDS011;42934;54.294;18.598;2023-08-31T09:58:51;2.63;;;1.50;;
57047;SDS011;42934;54.294;18.598;2023-08-31T10:01:21;15.75;;;1.73;;
57047;SDS011;42934;54.294;18.598;2023-08-31T10:03:57;5.50;;;1.50;;
57047;SDS011;42934;54.294;18.598;2023-08-31T10:06:30;3.08;;;1.70;;
57047;SDS011;42934;54.294;18.598;2023-08-31T10:09:00;2.50;;;1.60;;
57047;SDS011;42934;54.294;18.598;2023-08-31T10:11:31;2.17;;;1.40;;
57047;SDS011;42934;54.294;18.598;2023-08-31T10:14:02;3.28;;;1.25;;
57047;SDS011;42934;54.294;18.598;2023-08-31T10:16:33;3.15;;;1.30;;
57047;SDS011;42934;54.294;18.598;2023-08-31T10:19:08;3.03;;;1.60;;
57047;SDS011;42934;54.294;18.598;2023-08-31T10:21:38;3.28;;;1.40;;
57047;SDS011;42934;54.294;18.598;2023-08-31T10:24:11;2.50;;;1.40;;
57047;SDS011;42934;54.294;18.598;2023-08-31T10:26:40;2.77;;;1.20;;
57047;SDS011;42934;54.294;18.598;2023-08-31T10:29:25;3.55;;;1.45;;
57047;SDS011;42934;54.294;18.598;2023-08-31T10:31:58;3.10;;;1.20;;
57047;SDS011;42934;54.294;18.598;2023-08-31T10:34:35;2.22;;;1.25;;
57047;SDS011;42934;54.294;18.598;2023-08-31T10:37:19;9.45;;;1.40;;
57047;SDS011;42934;54.294;18.598;2023-08-31T10:39:50;1.77;;;1.33;;
57047;SDS011;42934;54.294;18.598;2023-08-31T10:42:41;3.47;;;1.33;;
57047;SDS011;42934;54.294;18.598;2023-08-31T10:45:11;2.53;;;1.38;;
57047;SDS011;42934;54.294;18.598;2023-08-31T10:47:40;2.10;;;1.50;;
57047;SDS011;42934;54.294;18.598;2023-08-31T10:50:17;5.13;;;2.60;;
57047;SDS011;42934;54.294;18.598;2023-08-31T10:52:51;10.20;;;2.05;;
57047;SDS011;42934;54.294;18.598;2023-08-31T10:55:20;27.27;;;2.30;;
57047;SDS011;42934;54.294;18.598;2023-08-31T10:57:53;5.13;;;1.75;;
57047;SDS011;42934;54.294;18.598;2023-08-31T11:03:14;2.40;;;1.83;;
57047;SDS011;42934;54.294;18.598;2023-08-31T11:05:51;1.90;;;1.40;;
57047;SDS011;42934;54.294;18.598;2023-08-31T11:08:21;6.13;;;1.77;;
57047;SDS011;42934;54.294;18.598;2023-08-31T11:10:51;1.60;;;1.50;;
57047;SDS011;42934;54.294;18.598;2023-08-31T11:13:21;3.80;;;1.73;;
57047;SDS011;42934;54.294;18.598;2023-08-31T11:15:52;120.10;;;22.80;;
57047;SDS011;42934;54.294;18.598;2023-08-31T11:18:21;122.73;;;25.07;;
57047;SDS011;42934;54.294;18.598;2023-08-31T11:20:52;30.83;;;7.75;;
57047;SDS011;42934;54.294;18.598;2023-08-31T11:23:22;7.45;;;2.75;;
57047;SDS011;42934;54.294;18.598;2023-08-31T11:25:53;4.63;;;2.08;;
57047;SDS011;42934;54.294;18.598;2023-08-31T11:28:22;2.97;;;1.90;;
57047;SDS011;42934;54.294;18.598;2023-08-31T11:30:53;2.63;;;1.80;;
57047;SDS011;42934;54.294;18.598;2023-08-31T11:33:22;2.67;;;1.80;;
57047;SDS011;42934;54.294;18.598;2023-08-31T11:35:53;6.15;;;1.95;;
57047;SDS011;42934;54.294;18.598;2023-08-31T11:38:23;3.15;;;1.92;;
57047;SDS011;42934;54.294;18.598;2023-08-31T11:40:55;2.15;;;1.80;;
57047;SDS011;42934;54.294;18.598;2023-08-31T11:43:25;6.13;;;2.17;;
57047;SDS011;42934;54.294;18.598;2023-08-31T11:45:56;4.35;;;2.17;;
57047;SDS011;42934;54.294;18.598;2023-08-31T11:48:27;2.40;;;1.90;;
57047;SDS011;42934;54.294;18.598;2023-08-31T11:50:58;3.05;;;2.08;;
57047;SDS011;42934;54.294;18.598;2023-08-31T11:53:28;3.38;;;2.17;;
57047;SDS011;42934;54.294;18.598;2023-08-31T11:55:58;2.15;;;1.95;;
57047;SDS011;42934;54.294;18.598;2023-08-31T11:58:31;9.02;;;2.13;;
57047;SDS011;42934;54.294;18.598;2023-08-31T12:01:00;4.60;;;2.20;;
57047;SDS011;42934;54.294;18.598;2023-08-31T12:03:39;5.45;;;2.13;;
57047;SDS011;42934;54.294;18.598;2023-08-31T12:06:18;4.82;;;2.20;;
57047;SDS011;42934;54.294;18.598;2023-08-31T12:08:47;10.63;;;2.92;;
57047;SDS011;42934;54.294;18.598;2023-08-31T12:11:18;3.85;;;2.15;;
57047;SDS011;42934;54.294;18.598;2023-08-31T12:13:47;2.90;;;2.20;;
57047;SDS011;42934;54.294;18.598;2023-08-31T12:16:19;2.72;;;2.13;;
57047;SDS011;42934;54.294;18.598;2023-08-31T12:18:48;3.73;;;2.40;;
57047;SDS011;42934;54.294;18.598;2023-08-31T12:21:20;2.58;;;1.90;;
57047;SDS011;42934;54.294;18.598;2023-08-31T12:23:49;4.43;;;2.38;;
57047;SDS011;42934;54.294;18.598;2023-08-31T12:26:19;6.85;;;2.30;;
57047;SDS011;42934;54.294;18.598;2023-08-31T12:28:48;3.63;;;2.00;;
57047;SDS011;42934;54.294;18.598;2023-08-31T12:33:48;3.10;;;2.17;;
57047;SDS011;42934;54.294;18.598;2023-08-31T12:36:18;4.57;;;2.05;;
57047;SDS011;42934;54.294;18.598;2023-08-31T12:38:48;2.85;;;1.80;;
57047;SDS011;42934;54.294;18.598;2023-08-31T12:41:17;4.30;;;1.80;;
57047;SDS011;42934;54.294;18.598;2023-08-31T12:43:50;6.75;;;2.13;;
57047;SDS011;42934;54.294;18.598;2023-08-31T12:46:20;29.70;;;2.70;;
57047;SDS011;42934;54.294;18.598;2023-08-31T12:48:49;17.27;;;2.55;;
57047;SDS011;42934;54.294;18.598;2023-08-31T12:51:21;9.68;;;2.60;;
57047;SDS011;42934;54.294;18.598;2023-08-31T12:53:50;7.97;;;2.38;;
57047;SDS011;42934;54.294;18.598;2023-08-31T12:56:20;37.30;;;4.60;;
57047;SDS011;42934;54.294;18.598;2023-08-31T12:58:49;20.25;;;2.95;;
57047;SDS011;42934;54.294;18.598;2023-08-31T13:01:20;22.00;;;3.40;;
57047;SDS011;42934;54.294;18.598;2023-08-31T13:03:50;7.07;;;2.40;;
57047;SDS011;42934;54.294;18.598;2023-08-31T13:06:22;10.90;;;3.30;;
57047;SDS011;42934;54.294;18.598;2023-08-31T13:08:52;11.15;;;3.08;;
57047;SDS011;42934;54.294;18.598;2023-08-31T13:11:21;10.82;;;3.05;;
57047;SDS011;42934;54.294;18.598;2023-08-31T13:13:51;10.15;;;3.00;;
57047;SDS011;42934;54.294;18.598;2023-08-31T13:16:23;7.97;;;2.78;;
57047;SDS011;42934;54.294;18.598;2023-08-31T13:18:52;5.25;;;2.90;;
57047;SDS011;42934;54.294;18.598;2023-08-31T13:21:23;3.95;;;2.63;;
57047;SDS011;42934;54.294;18.598;2023-08-31T13:23:52;6.28;;;3.05;;
57047;SDS011;42934;54.294;18.598;2023-08-31T13:26:24;6.32;;;2.75;;
57047;SDS011;42934;54.294;18.598;2023-08-31T13:28:53;4.00;;;2.80;;
57047;SDS011;42934;54.294;18.598;2023-08-31T13:31:22;6.05;;;3.20;;
57047;SDS011;42934;54.294;18.598;2023-08-31T13:33:52;5.80;;;2.93;;
57047;SDS011;42934;54.294;18.598;2023-08-31T13:36:21;7.28;;;3.20;;
57047;SDS011;42934;54.294;18.598;2023-08-31T13:38:51;2.95;;;2.50;;
57047;SDS011;42934;54.294;18.598;2023-08-31T13:41:21;7.00;;;3.15;;
57047;SDS011;42934;54.294;18.598;2023-08-31T13:43:50;3.45;;;2.85;;
57047;SDS011;42934;54.294;18.598;2023-08-31T13:46:19;3.25;;;2.58;;
57047;SDS011;42934;54.294;18.598;2023-08-31T13:48:49;5.90;;;3.25;;
57047;SDS011;42934;54.294;18.598;2023-08-31T13:51:18;4.93;;;2.90;;
57047;SDS011;42934;54.294;18.598;2023-08-31T13:53:48;5.03;;;2.95;;
57047;SDS011;42934;54.294;18.598;2023-08-31T13:56:18;5.40;;;2.95;;
57047;SDS011;42934;54.294;18.598;2023-08-31T13:58:48;6.47;;;3.17;;
57047;SDS011;42934;54.294;18.598;2023-08-31T14:01:17;4.82;;;3.47;;
57047;SDS011;42934;54.294;18.598;2023-08-31T14:03:47;4.57;;;2.97;;
57047;SDS011;42934;54.294;18.598;2023-08-31T14:06:16;4.03;;;3.58;;
57047;SDS011;42934;54.294;18.598;2023-08-31T14:08:45;5.68;;;3.85;;
57047;SDS011;42934;54.294;18.598;2023-08-31T14:11:16;4.03;;;3.28;;
57047;SDS011;42934;54.294;18.598;2023-08-31T14:13:45;4.57;;;3.85;;
57047;SDS011;42934;54.294;18.598;2023-08-31T14:16:15;7.25;;;4.10;;
57047;SDS011;42934;54.294;18.598;2023-08-31T14:18:45;4.63;;;4.22;;
57047;SDS011;42934;54.294;18.598;2023-08-31T14:21:15;4.80;;;4.30;;
57047;SDS011;42934;54.294;18.598;2023-08-31T14:23:44;4.97;;;4.47;;
57047;SDS011;42934;54.294;18.598;2023-08-31T14:26:14;4.57;;;4.10;;
57047;SDS011;42934;54.294;18.598;2023-08-31T14:28:44;4.95;;;4.53;;
57047;SDS011;42934;54.294;18.598;2023-08-31T14:31:14;5.47;;;4.33;;
57047;SDS011;42934;54.294;18.598;2023-08-31T14:33:43;5.30;;;4.80;;
57047;SDS011;42934;54.294;18.598;2023-08-31T14:36:14;5.95;;;5.15;;
57047;SDS011;42934;54.294;18.598;2023-08-31T14:41:13;5.10;;;4.35;;
57047;SDS011;42934;54.294;18.598;2023-08-31T14:43:44;4.50;;;4.10;;
57047;SDS011;42934;54.294;18.598;2023-08-31T14:46:14;10.30;;;4.50;;
57047;SDS011;42934;54.294;18.598;2023-08-31T14:48:44;6.30;;;4.53;;
57047;SDS011;42934;54.294;18.598;2023-08-31T14:51:13;8.27;;;4.70;;
57047;SDS011;42934;54.294;18.598;2023-08-31T14:56:12;6.18;;;4.43;;
57047;SDS011;42934;54.294;18.598;2023-08-31T14:58:41;6.32;;;5.20;;
57047;SDS011;42934;54.294;18.598;2023-08-31T15:01:12;8.25;;;4.90;;
57047;SDS011;42934;54.294;18.598;2023-08-31T15:03:41;7.63;;;4.90;;
57047;SDS011;42934;54.294;18.598;2023-08-31T15:08:40;6.72;;;5.15;;
57047;SDS011;42934;54.294;18.598;2023-08-31T15:11:10;7.97;;;5.30;;
57047;SDS011;42934;54.294;18.598;2023-08-31T15:13:42;5.13;;;4.57;;
57047;SDS011;42934;54.294;18.598;2023-08-31T15:16:12;5.15;;;4.65;;
57047;SDS011;42934;54.294;18.598;2023-08-31T15:18:42;8.13;;;5.25;;
57047;SDS011;42934;54.294;18.598;2023-08-31T15:21:14;6.30;;;5.07;;
57047;SDS011;42934;54.294;18.598;2023-08-31T15:23:44;5.93;;;5.30;;
57047;SDS011;42934;54.294;18.598;2023-08-31T15:26:15;6.15;;;5.50;;
57047;SDS011;42934;54.294;18.598;2023-08-31T15:28:47;5.65;;;4.85;;
57047;SDS011;42934;54.294;18.598;2023-08-31T15:31:16;4.95;;;4.43;;